Time;durP1;ratioP1;P1;durP2;ratioP2;P2;SDS_P1;SDS_P2;PMS_P1;PMS_P2;Temp;Humidity;BMP_temperature;BMP_pressure;BME280_temperature;BME280_humidity;BME280_pressure;Samples;Min_cycle;Max_cycle;Signal;HPM_P1;HPM_P2
2022/10/10 03:56:50;;;;;;;4.78;3.00;;;;;;;8.21;100.00;101344.31;6557324;26;20412;-89
2022/10/10 03:59:53;;;;;;;4.10;3.12;;;;;;;8.24;100.00;101339.50;6661211;26;34004;-89
2022/10/10 04:02:56;;;;;;;4.35;3.60;;;;;;;8.22;100.00;101346.88;6661428;26;33986;-89
2022/10/10 04:05:58;;;;;;;6.97;3.20;;;;;;;8.24;99.53;101334.13;6663351;26;34151;-88
2022/10/10 04:09:01;;;;;;;5.37;3.17;;;;;;;8.21;100.00;101337.09;6663051;26;33884;-88
2022/10/10 04:12:04;;;;;;;5.20;3.35;;;;;;;8.15;100.00;101340.34;6672534;26;33582;-89
2022/10/10 04:15:07;;;;;;;4.97;3.28;;;;;;;8.11;100.00;101339.78;6678795;26;35003;-88
2022/10/10 04:18:11;;;;;;;5.45;3.80;;;;;;;8.07;100.00;101340.19;6643983;26;32555;-88
2022/10/10 04:21:13;;;;;;;4.62;3.28;;;;;;;7.99;100.00;101334.69;6661315;26;34759;-88
2022/10/10 04:24:16;;;;;;;8.27;3.45;;;;;;;7.92;100.00;101332.50;6661685;26;34171;-88
2022/10/10 04:27:18;;;;;;;7.30;3.42;;;;;;;7.88;100.00;101344.50;6662029;26;34650;-88
2022/10/10 04:30:21;;;;;;;6.95;3.37;;;;;;;7.85;100.00;101344.78;6662994;26;34893;-88
2022/10/10 04:33:24;;;;;;;4.82;3.12;;;;;;;7.82;100.00;101341.53;6664007;26;33570;-88
2022/10/10 04:36:27;;;;;;;4.72;2.95;;;;;;;7.82;100.00;101338.84;6663070;26;33929;-88
2022/10/10 04:39:29;;;;;;;7.82;2.92;;;;;;;7.90;100.00;101339.03;6664082;26;33580;-88
2022/10/10 04:42:32;;;;;;;4.95;3.00;;;;;;;8.00;100.00;101344.41;6642259;26;33003;-88
2022/10/10 04:45:34;;;;;;;8.50;3.33;;;;;;;8.08;100.00;101336.53;6664124;26;34028;-88
2022/10/10 04:48:39;;;;;;;4.62;3.25;;;;;;;8.16;100.00;101340.22;6664929;26;34055;-88
2022/10/10 04:51:41;;;;;;;7.25;3.30;;;;;;;8.05;100.00;101342.16;6642449;26;32447;-88
2022/10/10 04:54:44;;;;;;;6.43;3.50;;;;;;;7.95;100.00;101339.44;6663440;26;34499;-88
2022/10/10 04:57:46;;;;;;;5.03;3.08;;;;;;;7.99;100.00;101343.56;6662406;26;34040;-88
2022/10/10 05:00:53;;;;;;;6.47;3.40;;;;;;;8.06;100.00;101346.53;6642487;26;32476;-88
2022/10/10 05:03:56;;;;;;;5.00;2.95;;;;;;;8.08;100.00;101341.91;6662811;26;33916;-88
2022/10/10 05:06:59;;;;;;;6.03;3.00;;;;;;;8.02;100.00;101343.28;6663019;26;34288;-88
2022/10/10 05:10:02;;;;;;;5.03;3.42;;;;;;;7.91;100.00;101349.59;6643131;26;33353;-88
2022/10/10 05:13:07;;;;;;;4.60;3.28;;;;;;;7.91;100.00;101346.91;6663352;26;33990;-88
2022/10/10 05:16:09;;;;;;;5.07;3.40;;;;;;;7.85;100.00;101352.00;6663835;26;33690;-88
2022/10/10 05:19:12;;;;;;;6.40;3.67;;;;;;;7.82;100.00;101347.75;6671532;26;34517;-88
2022/10/10 05:22:14;;;;;;;7.70;3.50;;;;;;;7.82;100.00;101350.41;6670024;26;34134;-88
2022/10/10 05:25:18;;;;;;;4.65;3.45;;;;;;;7.88;100.00;101349.03;6663350;26;33996;-88
2022/10/10 05:31:42;;;;;;;7.45;3.33;;;;;;;8.04;100.00;101348.50;6662304;26;33569;-88
2022/10/10 05:34:44;;;;;;;7.28;3.35;;;;;;;8.12;100.00;101348.66;6663492;26;34118;-88
2022/10/10 05:37:47;;;;;;;4.25;3.42;;;;;;;8.23;100.00;101345.87;6662740;26;34071;-88
2022/10/10 05:40:50;;;;;;;6.55;3.55;;;;;;;8.27;100.00;101360.69;6662587;26;35452;-88
2022/10/10 05:43:53;;;;;;;7.43;3.58;;;;;;;8.29;100.00;101347.16;6662460;26;33701;-88
2022/10/10 05:46:55;;;;;;;5.05;3.87;;;;;;;8.36;100.00;101357.16;6662249;26;33655;-88
2022/10/10 05:49:58;;;;;;;4.55;3.53;;;;;;;8.46;100.00;101359.91;6641653;26;33391;-88
2022/10/10 05:53:01;;;;;;;4.87;3.25;;;;;;;8.51;100.00;101352.28;6662145;26;33628;-88
2022/10/10 05:56:04;;;;;;;7.68;3.50;;;;;;;8.65;100.00;101360.91;6662563;26;34449;-88
2022/10/10 05:59:06;;;;;;;4.68;3.25;;;;;;;8.75;100.00;101362.59;6663190;26;33958;-88
2022/10/10 06:02:11;;;;;;;7.05;3.72;;;;;;;8.84;100.00;101358.22;6643198;26;32648;-91
2022/10/10 06:05:14;;;;;;;6.85;3.72;;;;;;;8.97;97.64;101363.28;6663044;26;34457;-93
2022/10/10 06:08:17;;;;;;;9.63;3.60;;;;;;;9.17;95.34;101364.94;6642915;26;32247;-92
2022/10/10 06:11:22;;;;;;;4.62;3.28;;;;;;;9.20;96.55;101361.12;6666056;26;35150;-89
2022/10/10 06:14:24;;;;;;;5.28;3.37;;;;;;;9.28;94.85;101366.63;6666129;26;34842;-88
2022/10/10 06:17:27;;;;;;;6.75;3.33;;;;;;;9.38;94.10;101363.91;6670772;26;34258;-88
2022/10/10 06:20:32;;;;;;;5.50;3.12;;;;;;;9.57;92.12;101361.16;6669758;26;34479;-88
2022/10/10 06:23:35;;;;;;;6.07;3.22;;;;;;;9.70;91.81;101358.97;6642711;26;32253;-88
2022/10/10 06:26:37;;;;;;;6.18;3.00;;;;;;;9.84;90.66;101359.50;6664460;26;34883;-88
2022/10/10 06:29:40;;;;;;;9.15;3.17;;;;;;;10.01;88.59;101356.00;6642153;26;32484;-88
2022/10/10 06:32:43;;;;;;;6.30;3.83;;;;;;;10.05;88.93;101352.03;6643550;26;33465;-88
2022/10/10 06:35:47;;;;;;;6.18;3.60;;;;;;;10.09;88.60;101358.81;6662250;26;33814;-88
2022/10/10 06:38:50;;;;;;;4.25;3.37;;;;;;;10.11;88.16;101348.72;6663013;26;33927;-88
2022/10/10 06:41:53;;;;;;;6.75;3.25;;;;;;;10.22;86.91;101350.38;6667097;26;34737;-88
2022/10/10 06:44:55;;;;;;;4.90;3.05;;;;;;;10.31;86.30;101351.34;6663194;26;33489;-88
2022/10/10 06:47:58;;;;;;;5.12;3.10;;;;;;;10.43;85.40;101356.31;6662431;26;34248;-88
2022/10/10 06:51:04;;;;;;;4.47;3.28;;;;;;;10.58;83.45;101353.09;6641338;26;32768;-88
2022/10/10 06:54:10;;;;;;;4.03;2.83;;;;;;;10.69;82.80;101362.81;6641744;26;33864;-88
2022/10/10 06:57:13;;;;;;;5.25;3.37;;;;;;;10.79;82.37;101361.75;6661719;26;34496;-88
2022/10/10 07:00:17;;;;;;;8.05;3.35;;;;;;;11.03;81.98;101361.09;6660505;26;33864;-88
2022/10/10 07:03:20;;;;;;;5.30;3.12;;;;;;;11.16;79.47;101354.44;6641445;26;33698;-88
2022/10/10 07:06:23;;;;;;;4.50;3.25;;;;;;;11.35;79.12;101355.06;6641671;26;33386;-88
2022/10/10 07:09:25;;;;;;;3.45;2.95;;;;;;;11.56;77.21;101353.84;6663005;26;34065;-88
2022/10/10 07:12:28;;;;;;;3.80;2.62;;;;;;;11.64;75.92;101353.91;6643480;26;33880;-87
2022/10/10 07:15:35;;;;;;;4.87;3.30;;;;;;;11.68;75.23;101357.12;6662683;26;34160;-88
2022/10/10 07:18:38;;;;;;;5.53;3.28;;;;;;;11.78;73.67;101358.66;6661633;26;33474;-88
2022/10/10 07:21:40;;;;;;;4.45;2.65;;;;;;;11.87;74.14;101350.62;6661246;26;34091;-88
2022/10/10 07:24:44;;;;;;;4.93;2.90;;;;;;;12.10;72.50;101350.91;6661976;26;34926;-88
2022/10/10 07:27:46;;;;;;;5.82;3.22;;;;;;;12.23;71.97;101351.28;6662017;26;34579;-88
2022/10/10 07:30:49;;;;;;;6.25;3.50;;;;;;;12.37;70.51;101342.53;6642237;26;32602;-88
2022/10/10 07:33:52;;;;;;;6.78;3.00;;;;;;;12.49;70.46;101343.06;6641010;26;32816;-88
2022/10/10 07:36:55;;;;;;;5.03;2.92;;;;;;;12.65;68.85;101347.62;6662035;26;34484;-88
2022/10/10 07:39:57;;;;;;;5.03;3.00;;;;;;;12.84;68.07;101347.31;6660862;26;33565;-88
2022/10/10 07:43:00;;;;;;;3.58;2.62;;;;;;;12.88;67.17;101351.34;6661908;26;33535;-88
2022/10/10 07:46:04;;;;;;;6.55;2.72;;;;;;;13.03;64.96;101350.69;6661901;26;34120;-88
2022/10/10 07:49:12;;;;;;;4.87;2.72;;;;;;;12.86;67.44;101349.84;6641992;26;32485;-88
2022/10/10 07:52:15;;;;;;;5.18;2.87;;;;;;;12.83;66.01;101342.06;6663355;26;33974;-88
2022/10/10 07:55:18;;;;;;;4.68;2.92;;;;;;;12.98;66.29;101342.22;6654773;26;33004;-88
2022/10/10 07:58:20;;;;;;;3.83;2.70;;;;;;;13.15;64.91;101344.75;6682837;26;35166;-88
2022/10/10 08:01:23;;;;;;;5.53;2.92;;;;;;;13.31;66.22;101341.22;6662112;26;33852;-88
2022/10/10 08:04:26;;;;;;;4.18;2.97;;;;;;;13.66;64.76;101338.22;6645858;26;32946;-88
2022/10/10 08:07:29;;;;;;;6.03;3.00;;;;;;;13.75;62.71;101339.91;6663326;26;34870;-88
2022/10/10 08:10:32;;;;;;;5.12;2.53;;;;;;;13.64;63.33;101348.41;6641245;26;34152;-88
2022/10/10 08:13:36;;;;;;;4.97;2.47;;;;;;;13.70;62.29;101335.00;6662390;26;34800;-88
2022/10/10 08:16:38;;;;;;;2.70;2.10;;;;;;;13.87;63.16;101340.38;6643019;26;33483;-92
2022/10/10 08:19:41;;;;;;;7.00;2.72;;;;;;;13.94;60.82;101342.19;6661133;26;34257;-92
2022/10/10 08:22:44;;;;;;;3.87;2.20;;;;;;;13.94;60.12;101341.34;6639899;26;33158;-92
2022/10/10 08:25:46;;;;;;;1.90;1.80;;;;;;;14.24;61.60;101335.09;6640689;26;31983;-93
2022/10/10 08:28:49;;;;;;;3.42;1.73;;;;;;;14.43;59.16;101328.37;6660541;26;34414;-93
2022/10/10 08:31:51;;;;;;;3.30;1.92;;;;;;;14.47;57.25;101324.25;6640920;26;32279;-89
2022/10/10 08:34:54;;;;;;;4.82;1.80;;;;;;;14.46;57.12;101319.88;6660473;26;33699;-88
2022/10/10 08:37:56;;;;;;;6.82;1.98;;;;;;;14.67;54.45;101324.66;6663745;26;34661;-88
2022/10/10 08:41:06;;;;;;;1.70;1.60;;;;;;;14.79;54.84;101308.81;6642884;26;32810;-88
2022/10/10 08:44:14;;;;;;;2.05;1.80;;;;;;;14.97;53.83;101316.59;6640527;26;33858;-88
2022/10/10 08:47:19;;;;;;;7.53;1.80;;;;;;;15.20;52.69;101317.41;6661818;26;33937;-88
2022/10/10 08:50:29;;;;;;;2.95;1.80;;;;;;;15.36;52.92;101312.84;6640924;26;32370;-88
2022/10/10 08:53:46;;;;;;;5.00;1.80;;;;;;;15.46;50.78;101313.41;6640480;26;32416;-88
2022/10/10 08:56:49;;;;;;;4.18;1.62;;;;;;;15.45;50.92;101313.59;6661476;26;33994;-88
2022/10/10 08:59:55;;;;;;;3.25;1.73;;;;;;;15.45;50.27;101305.47;6663005;26;34222;-88
2022/10/10 09:02:59;;;;;;;6.70;1.87;;;;;;;15.36;50.91;101302.81;6640294;26;33374;-88
2022/10/10 09:06:02;;;;;;;1.70;1.50;;;;;;;15.67;50.83;101295.50;6660779;26;33905;-88
2022/10/10 09:09:11;;;;;;;2.28;1.65;;;;;;;15.82;50.53;101291.78;6660417;26;34018;-87
2022/10/10 09:12:13;;;;;;;5.33;1.70;;;;;;;15.80;48.90;101295.72;6659950;26;33883;-88
2022/10/10 09:15:27;;;;;;;2.47;1.50;;;;;;;15.79;49.83;101289.44;6661024;26;34801;-88
2022/10/10 09:18:42;;;;;;;3.08;1.75;;;;;;;15.79;48.77;101292.16;6662210;26;34244;-88
2022/10/10 09:21:45;;;;;;;3.60;1.23;;;;;;;15.74;50.51;101283.75;6642327;26;32331;-88
2022/10/10 09:25:00;;;;;;;1.40;1.30;;;;;;;15.70;49.65;101279.72;6641160;26;33511;-88
2022/10/10 09:28:19;;;;;;;2.15;1.20;;;;;;;15.68;50.46;101280.94;6662305;26;34483;-87
2022/10/10 09:31:32;;;;;;;1.67;1.50;;;;;;;16.14;49.96;101277.94;6641905;26;34152;-88
2022/10/10 09:35:04;;;;;;;3.70;1.58;;;;;;;16.49;49.16;101268.88;6641695;26;32165;-89
2022/10/10 09:38:19;;;;;;;1.80;1.40;;;;;;;16.49;49.22;101268.88;6627612;26;34518;-88
2022/10/10 09:41:33;;;;;;;2.17;1.37;;;;;;;16.45;47.44;101273.03;6662299;26;34026;-88
2022/10/10 09:44:38;;;;;;;3.90;1.50;;;;;;;16.26;47.95;101269.09;6661495;26;34489;-88
2022/10/10 09:47:41;;;;;;;3.05;1.45;;;;;;;16.46;46.56;101269.25;6662450;26;34405;-88
2022/10/10 09:50:46;;;;;;;2.42;1.25;;;;;;;16.44;45.49;101263.22;6662378;26;34074;-88
2022/10/10 09:53:49;;;;;;;2.35;1.50;;;;;;;16.45;47.12;101258.59;6641363;26;32553;-88
2022/10/10 09:56:56;;;;;;;2.47;1.42;;;;;;;16.54;47.67;101266.41;6661212;26;34519;-88
2022/10/10 10:00:23;;;;;;;1.60;1.50;;;;;;;16.87;45.94;101274.03;6662172;26;35411;-88
2022/10/10 10:03:26;;;;;;;2.50;1.45;;;;;;;16.83;45.94;101264.59;6665713;26;33770;-88
2022/10/10 10:06:29;;;;;;;3.15;1.50;;;;;;;17.07;45.13;101257.03;6664508;26;34718;-88
2022/10/10 10:09:32;;;;;;;3.85;1.60;;;;;;;17.06;43.83;101258.09;6645967;26;33289;-88
2022/10/10 10:12:41;;;;;;;3.22;1.40;;;;;;;17.08;45.00;101253.25;6664179;26;33894;-88
2022/10/10 10:15:51;;;;;;;5.03;1.77;;;;;;;17.36;45.05;101250.50;6663274;26;35654;-88
2022/10/10 10:18:53;;;;;;;2.10;1.50;;;;;;;17.38;45.07;101253.87;6641515;26;32376;-88
2022/10/10 10:21:57;;;;;;;4.53;1.65;;;;;;;17.40;45.33;101247.19;6641754;26;33599;-88
2022/10/10 10:25:27;;;;;;;1.60;1.30;;;;;;;17.44;45.42;101240.28;6662365;26;33725;-88
2022/10/10 10:28:40;;;;;;;1.55;1.45;;;;;;;17.55;44.93;101243.47;6661323;26;34066;-88
2022/10/10 10:32:02;;;;;;;2.47;1.37;;;;;;;17.70;44.95;101238.75;6661929;26;35446;-88
2022/10/10 10:35:39;;;;;;;1.50;1.40;;;;;;;17.75;41.36;101244.41;6662206;26;34215;-88
2022/10/10 10:38:57;;;;;;;1.50;1.30;;;;;;;17.96;41.46;101232.56;6641914;26;32198;-88
2022/10/10 10:42:34;;;;;;;2.93;1.50;;;;;;;17.78;42.92;101233.13;6653666;26;32682;-87
2022/10/10 10:45:37;;;;;;;2.78;1.58;;;;;;;17.79;40.90;101223.94;6644724;26;32459;-85
2022/10/10 10:48:44;;;;;;;2.22;1.50;;;;;;;18.01;40.34;101213.69;6661374;26;34009;-86
2022/10/10 10:51:52;;;;;;;2.83;1.37;;;;;;;18.33;40.19;101213.97;6641605;26;33513;-85
2022/10/10 10:55:20;;;;;;;2.83;1.17;;;;;;;18.22;37.94;101212.72;6661992;26;34163;-86
2022/10/10 10:58:54;;;;;;;2.55;1.27;;;;;;;18.68;37.65;101208.31;6661699;26;34831;-88
2022/10/10 11:02:38;;;;;;;1.83;1.20;;;;;;;18.79;37.18;101205.81;6662558;26;33699;-88
2022/10/10 11:06:28;;;;;;;2.65;1.67;;;;;;;19.11;37.25;101197.78;6660577;26;34997;-88
2022/10/10 11:09:33;;;;;;;2.47;1.60;;;;;;;19.73;37.04;101197.34;6640366;26;33728;-86
2022/10/10 11:13:00;;;;;;;3.90;1.45;;;;;;;20.05;36.07;101193.56;6673987;26;35541;-86
2022/10/10 11:16:17;;;;;;;2.08;1.20;;;;;;;20.67;36.07;101191.00;6663837;26;33898;-88
2022/10/10 11:20:06;;;;;;;3.45;1.50;;;;;;;20.97;35.47;101185.66;6653737;26;32395;-86
2022/10/10 11:23:21;;;;;;;2.72;1.42;;;;;;;21.51;35.01;101185.91;6633701;26;32328;-85
2022/10/10 11:26:34;;;;;;;2.37;1.42;;;;;;;22.33;34.33;101177.13;6660064;26;32536;-86
2022/10/10 11:30:04;;;;;;;2.75;1.40;;;;;;;23.00;34.04;101174.06;6655236;26;213492;-86
2022/10/10 11:33:14;;;;;;;5.12;1.70;;;;;;;23.85;33.28;101164.28;6641628;26;32305;-86
2022/10/10 11:36:24;;;;;;;1.67;1.58;;;;;;;23.89;30.91;101162.69;6641306;26;32232;-86
2022/10/10 11:39:37;;;;;;;;;;;;;;;23.70;30.94;101162.91;6641667;26;32273;-86
2022/10/10 11:42:49;;;;;;;3.33;1.75;;;;;;;24.12;30.13;101146.03;6662314;26;34324;-86
2022/10/10 11:45:59;;;;;;;1.33;1.23;;;;;;;25.52;30.41;101142.28;6641996;26;32430;-86
2022/10/10 11:49:10;;;;;;;1.48;1.05;;;;;;;26.81;26.01;101139.53;6661914;26;33484;-90
2022/10/10 11:52:21;;;;;;;1.10;1.00;;;;;;;28.62;25.58;101123.91;6662391;26;35357;-86
2022/10/10 11:55:43;;;;;;;1.23;1.12;;;;;;;29.74;23.86;101125.37;6662241;26;34516;-86
2022/10/10 11:58:53;;;;;;;1.10;0.80;;;;;;;29.55;22.11;101117.72;6662122;26;34466;-86
2022/10/10 12:01:59;;;;;;;1.65;1.25;;;;;;;29.58;23.86;101121.84;6642661;26;32407;-86
2022/10/10 12:05:05;;;;;;;1.65;1.00;;;;;;;30.24;21.60;101123.34;6644029;26;33068;-86
2022/10/10 12:08:22;;;;;;;1.15;1.00;;;;;;;29.28;23.69;101117.28;6662574;26;35071;-86
2022/10/10 12:11:33;;;;;;;2.67;1.20;;;;;;;31.33;21.25;101108.78;6662744;26;33928;-86
2022/10/10 12:14:41;;;;;;;2.58;0.98;;;;;;;31.67;20.32;101104.94;6661810;26;35462;-87
2022/10/10 12:17:45;;;;;;;1.70;1.05;;;;;;;31.02;19.89;101093.63;6661017;26;33945;-86
2022/10/10 12:20:48;;;;;;;0.90;0.90;;;;;;;30.76;19.77;101093.88;6661402;26;34910;-87
2022/10/10 12:24:09;;;;;;;1.48;0.80;;;;;;;29.96;21.26;101089.69;6661495;26;35373;-87
2022/10/10 12:27:41;;;;;;;2.80;1.10;;;;;;;27.33;23.79;101094.47;6661756;26;34939;-87
2022/10/10 12:30:56;;;;;;;1.15;0.85;;;;;;;26.17;24.35;101097.09;6661468;26;33666;-90
2022/10/10 12:34:04;;;;;;;0.68;0.65;;;;;;;26.54;24.68;101092.72;6661751;26;34957;-87
2022/10/10 12:37:25;;;;;;;0.60;0.60;;;;;;;27.05;22.49;101099.31;6641945;26;32773;-87
2022/10/10 12:40:28;;;;;;;0.90;0.90;;;;;;;27.56;21.12;101088.44;6661526;26;34829;-87
2022/10/10 12:43:40;;;;;;;1.15;0.95;;;;;;;27.22;21.99;101090.00;6641231;26;33078;-87
2022/10/10 12:46:43;;;;;;;1.33;0.85;;;;;;;26.41;23.68;101088.44;6661069;26;34014;-87
2022/10/10 12:49:58;;;;;;;2.42;0.88;;;;;;;25.91;23.42;101087.78;6640921;26;33783;-87
2022/10/10 12:53:03;;;;;;;1.73;0.95;;;;;;;25.35;26.53;101087.22;6642635;26;33470;-87
2022/10/10 12:56:11;;;;;;;2.25;0.90;;;;;;;24.01;27.82;101086.44;6663080;26;34059;-86
2022/10/10 12:59:23;;;;;;;0.93;0.90;;;;;;;23.35;28.28;101088.81;6662354;26;34741;-87
2022/10/10 13:02:27;;;;;;;2.00;0.70;;;;;;;22.75;28.59;101092.75;6662041;26;33603;-87
2022/10/10 13:05:33;;;;;;;2.22;1.40;;;;;;;22.46;27.45;101086.34;6662611;26;34756;-87
2022/10/10 13:08:40;;;;;;;2.33;0.98;;;;;;;22.71;28.20;101085.25;6662274;26;34405;-87
2022/10/10 13:11:55;;;;;;;1.50;1.05;;;;;;;23.06;26.47;101083.28;6662718;26;34912;-87
2022/10/10 13:14:58;;;;;;;1.45;1.23;;;;;;;22.90;26.70;101078.53;6662706;26;33780;-86
2022/10/10 13:18:00;;;;;;;1.80;0.98;;;;;;;22.84;26.94;101074.84;6662574;26;33919;-86
2022/10/10 13:21:09;;;;;;;6.00;0.80;;;;;;;22.86;27.38;101061.69;6641822;26;32746;-87
2022/10/10 13:24:16;;;;;;;1.35;1.23;;;;;;;23.02;26.81;101067.53;6663456;26;33989;-87
2022/10/10 13:27:26;;;;;;;1.25;1.08;;;;;;;21.67;28.40;101067.41;6678226;26;34154;-85
2022/10/10 13:30:31;;;;;;;1.70;1.05;;;;;;;21.74;30.00;101061.81;6648102;26;34389;-87
2022/10/10 13:33:34;;;;;;;4.57;1.30;;;;;;;21.29;29.87;101052.16;6647206;26;32817;-85
2022/10/10 13:36:37;;;;;;;1.37;1.08;;;;;;;21.38;30.38;101054.56;6667448;26;33925;-86
2022/10/10 13:39:40;;;;;;;1.77;1.27;;;;;;;21.34;30.56;101053.34;6662474;26;34454;-86
2022/10/10 13:42:47;;;;;;;2.25;1.30;;;;;;;21.27;31.63;101059.75;6662531;26;35458;-85
2022/10/10 13:45:58;;;;;;;1.30;1.20;;;;;;;21.15;33.01;101060.75;6662766;26;33792;-86
2022/10/10 13:49:18;;;;;;;2.62;1.10;;;;;;;21.19;31.12;101056.50;6672344;26;34008;-86
2022/10/10 13:52:22;;;;;;;1.55;1.02;;;;;;;21.17;30.84;101047.66;6652076;26;32440;-87
2022/10/10 13:55:33;;;;;;;1.80;1.40;;;;;;;20.99;32.00;101046.63;6646455;26;32614;-86
2022/10/10 13:58:39;;;;;;;1.25;1.12;;;;;;;20.66;35.31;101032.53;6661702;26;34748;-87
2022/10/10 14:01:58;;;;;;;2.33;1.10;;;;;;;20.38;33.15;101022.91;6644316;26;32259;-86
2022/10/10 14:05:07;;;;;;;2.15;1.30;;;;;;;20.19;33.47;101035.75;6663281;26;33658;-86
2022/10/10 14:08:19;;;;;;;1.65;1.30;;;;;;;19.81;33.42;101041.34;6665709;26;35062;-86
2022/10/10 14:11:26;;;;;;;2.72;1.42;;;;;;;19.80;34.15;101032.31;6663537;26;33992;-87
2022/10/10 14:14:54;;;;;;;2.85;1.42;;;;;;;19.78;34.65;101028.97;6662834;26;34100;-86
2022/10/10 14:17:57;;;;;;;5.53;1.62;;;;;;;19.58;35.18;101031.81;6641825;26;33576;-86
2022/10/10 14:20:59;;;;;;;1.65;1.48;;;;;;;19.41;35.84;101038.84;6662040;26;34534;-86
2022/10/10 14:24:03;;;;;;;4.12;1.25;;;;;;;19.09;35.94;101025.19;6661540;26;34452;-86
2022/10/10 14:27:13;;;;;;;2.83;1.40;;;;;;;18.96;35.71;101030.72;6641662;26;32617;-86
2022/10/10 14:30:15;;;;;;;2.42;1.70;;;;;;;18.79;35.54;101019.47;6642218;26;33641;-86
2022/10/10 14:33:19;;;;;;;1.65;1.33;;;;;;;18.77;36.61;101016.09;6643395;26;33159;-90
2022/10/10 14:36:22;;;;;;;1.40;1.30;;;;;;;18.71;36.53;101023.22;6661585;26;34249;-89
2022/10/10 14:39:24;;;;;;;2.22;1.48;;;;;;;18.54;37.72;101006.53;6662254;26;34107;-91
2022/10/10 14:42:29;;;;;;;2.58;1.20;;;;;;;18.35;36.97;101007.41;6662732;26;34415;-87
2022/10/10 14:45:32;;;;;;;2.75;1.35;;;;;;;18.36;37.23;101011.81;6641097;26;33519;-86
2022/10/10 14:48:35;;;;;;;3.72;1.83;;;;;;;18.32;37.58;101011.41;6640030;26;32190;-87
2022/10/10 14:51:38;;;;;;;3.33;1.23;;;;;;;18.32;38.23;101013.28;6662200;26;33374;-87
2022/10/10 14:54:41;;;;;;;2.65;1.25;;;;;;;18.24;39.08;101008.88;6661869;26;33588;-87
2022/10/10 14:57:43;;;;;;;1.20;1.10;;;;;;;18.13;39.42;101012.25;6661689;26;34518;-87
2022/10/10 15:00:47;;;;;;;3.03;1.33;;;;;;;18.07;38.85;101013.94;6662215;26;33486;-87
2022/10/10 15:03:50;;;;;;;3.92;1.35;;;;;;;17.96;39.50;101003.72;6664332;26;34880;-87
2022/10/10 15:06:55;;;;;;;5.32;1.87;;;;;;;17.97;39.73;101002.66;6662393;26;34656;-87
2022/10/10 15:10:15;;;;;;;3.08;1.50;;;;;;;17.86;39.84;101011.47;6662271;26;34165;-87
2022/10/10 15:13:38;;;;;;;3.87;1.52;;;;;;;17.78;40.75;101008.94;6661881;26;33817;-87
2022/10/10 15:16:40;;;;;;;4.50;1.70;;;;;;;17.57;40.95;101010.78;6662602;26;35508;-87
2022/10/10 15:19:43;;;;;;;9.93;1.73;;;;;;;17.42;41.41;101000.09;6662473;26;35070;-86
2022/10/10 15:22:45;;;;;;;2.50;1.95;;;;;;;17.36;42.17;101009.09;6642470;26;32116;-86
2022/10/10 15:25:48;;;;;;;2.05;1.75;;;;;;;17.22;42.53;101002.78;6642397;26;34030;-86
2022/10/10 15:28:52;;;;;;;4.57;2.20;;;;;;;17.12;43.17;100996.09;6662160;26;34399;-87
2022/10/10 15:31:55;;;;;;;7.53;1.90;;;;;;;17.03;43.33;101000.03;6643501;26;32393;-86
2022/10/10 15:34:58;;;;;;;4.05;1.90;;;;;;;16.95;43.62;101004.59;6660518;26;32733;-86
2022/10/10 15:38:01;;;;;;;2.58;1.70;;;;;;;16.88;43.87;100997.50;6641616;26;32892;-86
2022/10/10 15:41:06;;;;;;;4.45;2.00;;;;;;;16.63;44.69;100997.97;6662417;26;34885;-86
2022/10/10 15:44:14;;;;;;;3.40;1.98;;;;;;;16.58;45.58;101005.06;6662793;26;35553;-86
2022/10/10 15:47:18;;;;;;;4.57;2.00;;;;;;;16.46;46.01;101002.91;6643578;26;33249;-86
2022/10/10 15:50:21;;;;;;;2.40;2.00;;;;;;;16.40;46.33;101001.00;6662459;26;33784;-86
2022/10/10 15:53:28;;;;;;;5.53;2.12;;;;;;;16.29;47.33;100998.84;6671695;26;34969;-86
2022/10/10 15:56:31;;;;;;;3.47;1.98;;;;;;;16.20;47.66;100995.44;6644811;26;33125;-86
2022/10/10 15:59:34;;;;;;;5.47;2.80;;;;;;;16.09;47.45;100999.56;6645392;26;32581;-86
2022/10/10 16:02:42;;;;;;;4.40;2.60;;;;;;;16.01;47.92;100994.28;6643643;26;32880;-86
2022/10/10 16:05:44;;;;;;;3.87;2.40;;;;;;;15.93;48.22;101001.75;6665191;26;33997;-86
2022/10/10 16:08:47;;;;;;;3.80;2.42;;;;;;;15.83;49.25;100997.50;6668629;26;34321;-86
2022/10/10 16:12:06;;;;;;;5.37;2.70;;;;;;;15.77;49.03;100992.87;6679248;26;33831;-91
2022/10/10 16:15:08;;;;;;;5.10;2.72;;;;;;;15.76;49.51;100995.75;6665400;26;33929;-88
